Time;durP1;ratioP1;P1;durP2;ratioP2;P2;SDS_P1;SDS_P2;PMS_P1;PMS_P2;Temp;Humidity;BMP_temperature;BMP_pressure;BME280_temperature;BME280_humidity;BME280_pressure;Samples;Min_cycle;Max_cycle;Signal;HPM_P1;HPM_P2
2022/10/13 00:02:24;;;;;;;23.35;11.93;;;;;;;13.13;100.00;97205.47;4975248;28;20085;-67
2022/10/13 00:04:50;;;;;;;20.98;11.73;;;;;;;13.15;100.00;97197.63;4974256;28;20030;-67
2022/10/13 00:07:15;;;;;;;22.10;11.77;;;;;;;13.17;100.00;97198.03;4989676;28;20070;-67
2022/10/13 00:09:41;;;;;;;19.55;11.55;;;;;;;13.16;100.00;97199.22;4983358;28;20035;-68
2022/10/13 00:12:06;;;;;;;27.08;11.93;;;;;;;12.94;100.00;97192.59;4990095;28;20023;-67
2022/10/13 00:14:31;;;;;;;21.33;10.93;;;;;;;12.95;100.00;97191.44;4990291;28;20475;-67
2022/10/13 00:16:57;;;;;;;22.75;12.25;;;;;;;12.99;100.00;97192.28;4991036;28;20042;-67
2022/10/13 00:19:22;;;;;;;24.33;11.95;;;;;;;13.03;100.00;97194.31;4990443;28;20034;-66
2022/10/13 00:21:48;;;;;;;24.42;13.02;;;;;;;12.96;100.00;97194.97;4990734;28;20034;-67
2022/10/13 00:24:13;;;;;;;21.35;12.82;;;;;;;12.80;100.00;97197.88;4993182;28;20395;-67
2022/10/13 00:26:39;;;;;;;25.33;12.57;;;;;;;12.70;100.00;97201.28;4994980;28;20035;-67
2022/10/13 00:29:04;;;;;;;28.80;14.65;;;;;;;12.61;100.00;97202.31;4994002;28;20041;-66
2022/10/13 00:31:30;;;;;;;24.92;13.48;;;;;;;12.65;100.00;97191.38;4993042;28;20034;-67
2022/10/13 00:33:57;;;;;;;30.63;14.27;;;;;;;12.55;100.00;97194.72;4993915;28;20030;-66
2022/10/13 00:36:23;;;;;;;24.08;12.50;;;;;;;12.50;100.00;97195.06;4994856;28;20037;-67
2022/10/13 00:38:49;;;;;;;23.50;12.52;;;;;;;12.58;100.00;97197.53;4994978;28;20038;-67
2022/10/13 00:41:16;;;;;;;23.63;12.70;;;;;;;12.68;100.00;97190.63;4995188;28;20033;-67
2022/10/13 00:43:54;;;;;;;31.02;14.18;;;;;;;12.67;100.00;97202.78;4994843;28;20035;-67
2022/10/13 00:46:20;;;;;;;24.50;12.32;;;;;;;12.78;100.00;97201.03;4992353;28;20069;-67
2022/10/13 00:48:47;;;;;;;27.35;12.93;;;;;;;12.91;100.00;97201.59;4987636;28;20085;-67
2022/10/13 00:51:16;;;;;;;19.70;13.07;;;;;;;12.95;100.00;97207.94;4994759;28;20045;-67
2022/10/13 00:53:42;;;;;;;26.52;12.63;;;;;;;12.94;100.00;97203.59;4992141;28;20030;-67
2022/10/13 00:56:10;;;;;;;29.27;12.43;;;;;;;13.00;100.00;97204.88;4994204;28;20068;-67
2022/10/13 00:58:37;;;;;;;25.20;13.20;;;;;;;13.05;100.00;97206.50;4994900;28;20399;-67
2022/10/13 01:01:04;;;;;;;27.33;12.88;;;;;;;13.08;100.00;97204.97;4993177;28;20035;-66
2022/10/13 01:03:30;;;;;;;20.58;11.68;;;;;;;13.01;100.00;97208.41;4993407;28;20395;-67
2022/10/13 01:05:59;;;;;;;25.70;11.73;;;;;;;13.03;100.00;97202.56;4994109;28;20034;-66
2022/10/13 01:08:27;;;;;;;23.75;13.50;;;;;;;13.10;100.00;97202.66;4992493;28;20041;-66
2022/10/13 01:11:25;;;;;;;24.02;12.63;;;;;;;13.09;100.00;97204.63;4991869;28;20506;-67
2022/10/13 01:14:01;;;;;;;24.55;12.65;;;;;;;13.10;100.00;97206.19;4973302;28;20435;-67
2022/10/13 01:16:34;;;;;;;25.25;13.75;;;;;;;12.99;100.00;97210.75;4979760;28;20096;-67
2022/10/13 01:19:16;;;;;;;22.60;12.48;;;;;;;12.95;100.00;97207.16;4994438;28;20041;-67
2022/10/13 01:22:02;;;;;;;25.33;13.80;;;;;;;12.97;100.00;97193.81;4994636;28;20034;-67
2022/10/13 01:24:42;;;;;;;19.65;11.73;;;;;;;13.01;100.00;97200.94;4992716;28;20046;-66
2022/10/13 01:27:24;;;;;;;26.35;12.85;;;;;;;13.01;100.00;97191.91;4998014;28;20153;-66
2022/10/13 01:30:13;;;;;;;24.60;12.63;;;;;;;13.00;100.00;97193.88;4994409;28;20086;-66
2022/10/13 01:33:15;;;;;;;18.95;12.20;;;;;;;13.09;100.00;97192.81;4993981;28;20037;-66
2022/10/13 01:35:40;;;;;;;23.25;12.45;;;;;;;13.07;100.00;97182.19;4993103;28;20113;-67
2022/10/13 01:38:08;;;;;;;23.63;12.43;;;;;;;12.98;100.00;97179.72;4994219;28;20436;-66
2022/10/13 01:41:00;;;;;;;22.08;11.95;;;;;;;12.86;100.00;97168.94;4992568;28;20065;-68
2022/10/13 01:43:39;;;;;;;24.67;13.82;;;;;;;12.83;100.00;97166.91;4992790;28;20247;-66
2022/10/13 01:46:30;;;;;;;22.97;12.00;;;;;;;12.85;100.00;97169.28;4993316;28;20522;-67
2022/10/13 01:49:00;;;;;;;24.17;12.50;;;;;;;12.96;100.00;97164.75;4992796;28;20034;-67
2022/10/13 01:51:34;;;;;;;23.10;12.93;;;;;;;12.98;100.00;97160.47;4994560;28;20037;-67
2022/10/13 01:53:59;;;;;;;19.13;11.40;;;;;;;12.98;100.00;97165.97;4993206;28;20041;-67
2022/10/13 01:56:31;;;;;;;21.67;12.07;;;;;;;12.92;100.00;97161.94;4996775;28;20395;-68
2022/10/13 01:59:01;;;;;;;22.85;12.52;;;;;;;12.87;100.00;97173.25;4980148;28;20601;-68
2022/10/13 02:01:54;;;;;;;26.00;12.73;;;;;;;12.87;100.00;97175.22;4999100;28;20076;-67
2022/10/13 02:04:23;;;;;;;24.98;12.38;;;;;;;12.93;100.00;97177.28;4993795;28;20054;-67
2022/10/13 02:07:06;;;;;;;23.13;11.85;;;;;;;13.04;100.00;97176.66;4975697;28;20027;-67
2022/10/13 02:10:04;;;;;;;20.48;11.85;;;;;;;13.07;100.00;97176.69;4992059;28;20069;-66
2022/10/13 02:12:37;;;;;;;19.75;11.75;;;;;;;13.07;100.00;97165.69;4992063;28;20044;-67
2022/10/13 02:15:09;;;;;;;16.50;11.50;;;;;;;13.09;100.00;97165.31;4993522;28;20038;-66
2022/10/13 02:17:35;;;;;;;20.95;11.02;;;;;;;13.05;100.00;97162.50;4991707;28;20026;-66
2022/10/13 02:20:04;;;;;;;19.35;11.65;;;;;;;13.05;100.00;97167.22;4993226;28;20514;-67
2022/10/13 02:22:35;;;;;;;;;;;;;;;12.98;100.00;97162.41;4993924;28;20411;-67
2022/10/13 02:25:04;;;;;;;23.27;12.70;;;;;;;12.87;100.00;97153.22;4974427;28;19918;-67
2022/10/13 02:27:30;;;;;;;20.70;11.93;;;;;;;12.84;100.00;97149.28;4991311;28;20693;-66
2022/10/13 02:29:56;;;;;;;25.20;12.30;;;;;;;12.85;100.00;97153.59;4991719;28;20137;-67
2022/10/13 02:32:22;;;;;;;22.85;12.18;;;;;;;12.89;100.00;97156.38;4993006;28;20031;-66
2022/10/13 02:34:49;;;;;;;26.58;12.90;;;;;;;12.91;100.00;97149.38;4991731;28;20405;-67
2022/10/13 02:37:14;;;;;;;23.25;13.35;;;;;;;12.92;100.00;97147.41;4992539;28;20034;-67
2022/10/13 02:39:40;;;;;;;22.40;13.10;;;;;;;12.92;100.00;97147.41;4988984;28;20102;-68
2022/10/13 02:42:06;;;;;;;21.30;12.70;;;;;;;12.95;100.00;97152.94;4988407;28;20121;-68
2022/10/13 02:44:35;;;;;;;21.53;12.60;;;;;;;13.00;100.00;97160.88;4992212;28;20030;-68
2022/10/13 02:47:00;;;;;;;23.27;12.27;;;;;;;12.99;100.00;97167.53;4992119;28;20277;-69
2022/10/13 02:49:26;;;;;;;24.67;13.30;;;;;;;12.97;100.00;97163.59;4992787;28;20041;-68
2022/10/13 02:51:52;;;;;;;25.30;13.25;;;;;;;12.92;100.00;97161.16;4991151;28;20464;-68
2022/10/13 02:54:17;;;;;;;24.73;12.25;;;;;;;12.99;100.00;97159.28;4991321;28;20034;-67
2022/10/13 02:56:43;;;;;;;25.45;12.57;;;;;;;13.00;100.00;97157.34;4991775;28;20037;-68
2022/10/13 02:59:08;;;;;;;24.30;12.55;;;;;;;13.03;100.00;97156.59;4992619;28;20030;-68
2022/10/13 03:01:34;;;;;;;23.73;13.15;;;;;;;13.04;100.00;97158.19;4988341;28;20035;-67
2022/10/13 03:04:00;;;;;;;29.20;14.02;;;;;;;13.01;100.00;97161.66;4993881;28;20062;-67
2022/10/13 03:06:25;;;;;;;27.65;13.75;;;;;;;12.95;100.00;97174.94;4993827;28;20494;-67
2022/10/13 03:08:51;;;;;;;24.50;14.02;;;;;;;12.88;100.00;97166.59;4993739;28;20829;-67
2022/10/13 03:11:16;;;;;;;26.08;13.15;;;;;;;12.82;100.00;97176.34;4993255;28;20034;-67
2022/10/13 03:13:41;;;;;;;29.92;13.75;;;;;;;12.85;100.00;97167.31;4993312;28;20052;-67
2022/10/13 03:16:07;;;;;;;28.45;14.40;;;;;;;12.89;100.00;97164.63;4990998;28;20088;-66
2022/10/13 03:18:33;;;;;;;27.83;14.18;;;;;;;12.83;100.00;97158.66;4992675;28;20390;-67
2022/10/13 03:21:03;;;;;;;25.13;13.85;;;;;;;12.79;100.00;97166.84;4974792;28;20026;-66
2022/10/13 03:23:30;;;;;;;24.60;13.07;;;;;;;12.78;100.00;97169.97;4991296;28;20038;-66
2022/10/13 03:25:56;;;;;;;29.85;12.85;;;;;;;12.71;100.00;97159.69;4991472;28;20100;-66
2022/10/13 03:28:21;;;;;;;23.65;13.45;;;;;;;12.79;100.00;97171.56;4991902;28;20038;-66
2022/10/13 03:30:48;;;;;;;22.23;12.25;;;;;;;12.85;100.00;97164.59;4995732;28;20026;-67
2022/10/13 03:33:13;;;;;;;27.52;14.07;;;;;;;12.90;100.00;97172.50;5005370;28;20054;-66
2022/10/13 03:35:39;;;;;;;26.45;13.45;;;;;;;12.93;100.00;97171.00;5001058;28;20061;-67
2022/10/13 03:38:04;;;;;;;25.42;13.68;;;;;;;12.97;100.00;97171.84;4995733;28;20141;-68
2022/10/13 03:40:30;;;;;;;26.38;14.13;;;;;;;13.01;100.00;97170.69;4992564;28;20030;-67
2022/10/13 03:42:55;;;;;;;23.67;13.40;;;;;;;12.98;100.00;97170.66;4992148;28;20105;-68
2022/10/13 03:45:21;;;;;;;24.17;13.43;;;;;;;13.02;100.00;97177.03;4989152;28;20490;-66
2022/10/13 03:47:46;;;;;;;27.58;14.88;;;;;;;13.04;100.00;97171.16;4991651;28;20037;-67
2022/10/13 03:50:12;;;;;;;25.88;12.73;;;;;;;13.04;100.00;97168.41;4991791;28;20112;-68
2022/10/13 03:52:37;;;;;;;28.38;14.30;;;;;;;13.04;100.00;97168.41;4991565;28;20160;-68
2022/10/13 03:55:03;;;;;;;28.95;13.10;;;;;;;12.98;100.00;97165.97;4991717;28;20030;-68
2022/10/13 03:57:29;;;;;;;26.88;14.85;;;;;;;13.09;100.00;97166.13;4991125;28;20109;-68
2022/10/13 03:59:56;;;;;;;24.02;13.07;;;;;;;13.02;100.00;97171.53;4989842;28;20465;-68
2022/10/13 04:02:22;;;;;;;25.20;13.05;;;;;;;13.00;100.00;97171.88;4991425;28;20403;-68
2022/10/13 04:04:48;;;;;;;28.33;13.90;;;;;;;12.98;100.00;97167.91;4991920;28;20081;-68
2022/10/13 04:07:13;;;;;;;30.25;14.90;;;;;;;12.94;100.00;97175.31;4989977;28;20090;-68
2022/10/13 04:09:39;;;;;;;29.85;15.27;;;;;;;12.98;100.00;97178.91;4991767;28;20030;-68
2022/10/13 04:12:04;;;;;;;34.83;14.88;;;;;;;12.94;100.00;97170.59;4990891;28;20995;-68
2022/10/13 04:14:30;;;;;;;26.02;14.65;;;;;;;12.89;100.00;97173.69;4991412;28;20092;-68
2022/10/13 04:16:56;;;;;;;28.00;15.00;;;;;;;12.90;100.00;97167.00;4991078;28;20026;-68
2022/10/13 04:19:22;;;;;;;27.23;14.63;;;;;;;12.92;100.00;97164.69;4990447;28;20539;-68
2022/10/13 04:21:47;;;;;;;28.80;15.45;;;;;;;12.93;100.00;97160.78;4991338;28;20030;-68
2022/10/13 04:24:13;;;;;;;27.92;15.68;;;;;;;12.97;100.00;97164.38;4991288;28;20027;-68
2022/10/13 04:26:39;;;;;;;30.77;15.20;;;;;;;12.98;100.00;97160.47;4990704;28;20121;-68
2022/10/13 04:29:06;;;;;;;26.15;14.70;;;;;;;12.92;100.00;97159.19;4989441;28;20028;-68
2022/10/13 04:31:31;;;;;;;29.10;15.70;;;;;;;12.83;100.00;97164.16;4981848;28;20034;-68
2022/10/13 04:33:57;;;;;;;27.60;15.95;;;;;;;12.73;100.00;97162.03;4994544;28;20030;-68
2022/10/13 04:36:23;;;;;;;26.85;14.57;;;;;;;12.70;100.00;97162.78;4995834;28;20034;-68
2022/10/13 04:38:49;;;;;;;30.23;14.93;;;;;;;12.72;100.00;97157.72;4998069;28;20026;-68
2022/10/13 04:41:16;;;;;;;30.48;14.00;;;;;;;12.79;100.00;97160.56;4994878;28;20479;-69
2022/10/13 04:43:42;;;;;;;24.17;15.10;;;;;;;12.78;100.00;97167.22;4994794;28;20023;-67
2022/10/13 04:46:14;;;;;;;25.65;14.38;;;;;;;12.78;100.00;97168.03;4992263;28;20057;-67
2022/10/13 04:48:40;;;;;;;31.25;15.50;;;;;;;12.81;100.00;97164.53;4991248;28;20442;-67
2022/10/13 04:51:08;;;;;;;29.38;15.57;;;;;;;12.80;100.00;97168.44;4991131;28;20081;-67
2022/10/13 04:53:34;;;;;;;35.25;17.35;;;;;;;12.70;100.00;97174.56;4991262;28;20058;-67
2022/10/13 04:56:07;;;;;;;34.03;16.75;;;;;;;12.62;100.00;97165.44;4989183;28;20061;-67
2022/10/13 04:58:33;;;;;;;25.48;15.82;;;;;;;12.59;100.00;97155.16;4990040;28;20064;-67
2022/10/13 05:00:59;;;;;;;26.25;15.85;;;;;;;12.53;100.00;97150.34;4990504;28;20034;-67
2022/10/13 05:03:25;;;;;;;28.73;16.65;;;;;;;12.45;100.00;97151.41;5001554;28;20022;-68
2022/10/13 05:05:52;;;;;;;29.20;16.85;;;;;;;12.38;100.00;97149.31;4991408;28;20034;-68
2022/10/13 05:08:17;;;;;;;27.45;15.88;;;;;;;12.33;100.00;97150.41;4991049;28;20038;-68
2022/10/13 05:10:55;;;;;;;36.83;17.85;;;;;;;12.17;100.00;97147.00;4984877;28;20027;-68
2022/10/13 05:13:20;;;;;;;38.15;18.15;;;;;;;12.02;100.00;97145.97;4994497;28;20530;-67
2022/10/13 05:15:46;;;;;;;36.30;19.00;;;;;;;11.92;100.00;97146.56;4992504;28;20066;-67
2022/10/13 05:18:11;;;;;;;33.10;18.25;;;;;;;11.93;100.00;97145.41;4994685;28;20086;-67
2022/10/13 05:20:37;;;;;;;37.40;18.92;;;;;;;11.89;100.00;97144.53;4994079;28;20108;-67
2022/10/13 05:23:02;;;;;;;38.83;20.20;;;;;;;11.75;100.00;97145.84;4994107;28;20042;-67
2022/10/13 05:25:28;;;;;;;42.42;21.02;;;;;;;11.71;100.00;97146.94;4991142;28;20038;-68
2022/10/13 05:27:53;;;;;;;33.67;18.50;;;;;;;11.75;100.00;97145.84;4993243;28;20107;-68
2022/10/13 05:30:19;;;;;;;42.00;21.15;;;;;;;11.80;100.00;97155.75;4984339;28;20065;-67
2022/10/13 05:32:44;;;;;;;40.15;20.40;;;;;;;11.80;100.00;97151.03;4994100;28;20030;-67
2022/10/13 05:35:09;;;;;;;33.42;19.42;;;;;;;11.89;100.00;97150.81;4993967;28;20483;-67
2022/10/13 05:37:35;;;;;;;39.60;20.50;;;;;;;12.00;100.00;97159.28;4993715;28;20106;-67
2022/10/13 05:40:00;;;;;;;40.30;19.10;;;;;;;11.92;100.00;97149.31;4992354;28;20499;-67
2022/10/13 05:42:28;;;;;;;46.85;22.27;;;;;;;11.88;100.00;97151.19;4993865;28;20092;-67
2022/10/13 05:44:54;;;;;;;43.42;20.42;;;;;;;11.97;100.00;97149.00;4984260;28;20376;-67
2022/10/13 05:47:21;;;;;;;36.47;20.42;;;;;;;12.06;100.00;97146.81;4992182;28;20026;-67
2022/10/13 05:49:47;;;;;;;43.38;21.15;;;;;;;12.16;100.00;97148.19;4993626;28;20030;-67
2022/10/13 05:52:13;;;;;;;40.75;21.10;;;;;;;12.17;100.00;97141.50;4993813;28;20030;-67
2022/10/13 05:54:45;;;;;;;30.90;19.85;;;;;;;12.30;100.00;97148.44;4990335;28;20492;-67
2022/10/13 05:57:16;;;;;;;34.65;18.85;;;;;;;12.42;100.00;97141.94;4991666;28;20034;-67
2022/10/13 06:00:10;;;;;;;33.88;19.15;;;;;;;12.48;100.00;97150.66;4980710;28;20042;-67
2022/10/13 06:02:45;;;;;;;34.45;18.02;;;;;;;12.56;100.00;97153.16;4962115;28;20054;-67
2022/10/13 06:05:15;;;;;;;34.67;19.25;;;;;;;12.65;100.00;97147.41;4958144;28;20074;-67
2022/10/13 06:07:42;;;;;;;39.67;19.00;;;;;;;12.73;100.00;97145.53;4979422;28;20403;-66
2022/10/13 06:10:08;;;;;;;41.50;18.95;;;;;;;12.84;100.00;97151.19;4977636;28;20537;-66
2022/10/13 06:12:34;;;;;;;34.05;18.02;;;;;;;12.95;100.00;97152.94;4984881;28;20050;-66
2022/10/13 06:14:59;;;;;;;29.63;15.70;;;;;;;13.14;100.00;97154.81;4982527;28;20389;-67
2022/10/13 06:17:25;;;;;;;30.00;16.40;;;;;;;13.31;100.00;97156.22;4978895;28;20042;-67
2022/10/13 06:19:50;;;;;;;28.98;15.63;;;;;;;13.30;100.00;97148.31;4984967;28;20075;-67
2022/10/13 06:22:16;;;;;;;32.92;16.40;;;;;;;13.19;100.00;97157.19;4976574;28;20524;-67
2022/10/13 06:24:42;;;;;;;31.20;16.15;;;;;;;13.04;100.00;97163.69;4983606;28;20031;-67
2022/10/13 06:27:08;;;;;;;31.48;16.55;;;;;;;12.96;100.00;97159.25;4976878;28;20031;-67
2022/10/13 06:29:34;;;;;;;31.25;15.48;;;;;;;13.02;100.00;97160.53;4981079;28;20050;-67
2022/10/13 06:32:00;;;;;;;30.13;14.98;;;;;;;13.10;100.00;97155.91;4982470;28;20153;-67
2022/10/13 06:34:26;;;;;;;29.88;14.48;;;;;;;13.28;100.00;97153.41;4986048;28;20133;-67
2022/10/13 06:36:51;;;;;;;39.70;19.95;;;;;;;13.32;100.00;97162.50;4986266;28;20125;-66
2022/10/13 06:39:17;;;;;;;29.60;18.35;;;;;;;13.29;100.00;97158.53;4978967;28;20042;-67
2022/10/13 06:41:42;;;;;;;46.30;16.90;;;;;;;13.28;100.00;97161.66;4982979;28;20045;-68
2022/10/13 06:44:10;;;;;;;32.92;13.85;;;;;;;13.41;100.00;97152.00;4977287;28;20050;-65
2022/10/13 06:46:35;;;;;;;53.33;18.77;;;;;;;13.48;100.00;97154.06;4981565;28;20042;-67
2022/10/13 06:49:01;;;;;;;43.60;17.50;;;;;;;13.43;100.00;97155.16;4982642;28;20053;-67
2022/10/13 06:51:26;;;;;;;51.13;20.70;;;;;;;13.36;100.00;97160.59;4970536;28;20046;-67
2022/10/13 06:53:51;;;;;;;49.17;17.80;;;;;;;13.36;100.00;97157.84;4983640;28;20038;-66
2022/10/13 06:56:17;;;;;;;44.45;18.77;;;;;;;13.42;100.00;97155.56;4978131;28;20105;-66
2022/10/13 06:58:42;;;;;;;61.88;21.05;;;;;;;13.43;100.00;97149.66;4982617;28;20425;-66
2022/10/13 07:01:11;;;;;;;40.13;19.40;;;;;;;13.46;100.00;97153.66;4979010;28;20499;-66
2022/10/13 07:03:37;;;;;;;47.92;19.20;;;;;;;13.43;100.00;97157.13;4983447;28;20042;-65
2022/10/13 07:06:04;;;;;;;47.08;19.23;;;;;;;13.47;100.00;97145.03;4983284;28;20053;-67
2022/10/13 07:08:32;;;;;;;36.00;18.48;;;;;;;13.52;100.00;97149.38;4983653;28;20045;-66
2022/10/13 07:10:58;;;;;;;33.95;18.20;;;;;;;13.53;100.00;97145.47;4980932;28;20088;-67
2022/10/13 07:13:24;;;;;;;37.92;18.00;;;;;;;13.50;100.00;97148.97;4978466;28;20046;-65
2022/10/13 07:15:49;;;;;;;40.15;19.90;;;;;;;13.49;100.00;97145.44;4980204;28;20038;-67
2022/10/13 07:18:14;;;;;;;48.67;21.00;;;;;;;13.65;100.00;97149.94;4978191;28;20066;-67
2022/10/13 07:20:40;;;;;;;30.70;19.23;;;;;;;13.60;100.00;97148.31;4982897;28;20078;-66
2022/10/13 07:23:05;;;;;;;34.33;19.17;;;;;;;13.62;100.00;97154.22;4980763;28;20046;-67
2022/10/13 07:25:31;;;;;;;36.05;19.92;;;;;;;13.80;100.00;97146.19;4982816;28;20038;-67
2022/10/13 07:27:59;;;;;;;34.45;18.70;;;;;;;13.86;100.00;97139.16;4983368;28;20551;-67
2022/10/13 07:30:26;;;;;;;39.22;20.88;;;;;;;13.89;100.00;97140.38;4976820;28;20073;-65
2022/10/13 07:32:52;;;;;;;34.80;20.45;;;;;;;13.80;100.00;97140.66;4982625;28;20465;-66
2022/10/13 07:35:17;;;;;;;36.97;20.55;;;;;;;13.72;100.00;97142.56;4977003;28;20130;-67
2022/10/13 07:37:43;;;;;;;36.83;21.63;;;;;;;13.77;100.00;97147.72;4974635;28;20042;-67
2022/10/13 07:40:09;;;;;;;35.13;22.73;;;;;;;13.69;100.00;97135.03;4977910;28;20511;-67
2022/10/13 07:42:34;;;;;;;37.33;21.70;;;;;;;13.74;100.00;97134.72;4983090;28;20070;-67
2022/10/13 07:45:01;;;;;;;36.83;21.67;;;;;;;13.60;100.00;97131.00;4983418;28;20046;-67
2022/10/13 07:47:27;;;;;;;32.67;19.48;;;;;;;13.63;100.00;97136.56;4977244;28;20050;-67
2022/10/13 07:49:54;;;;;;;34.50;20.20;;;;;;;13.48;100.00;97134.81;4979990;28;20136;-67
2022/10/13 07:52:20;;;;;;;34.80;19.95;;;;;;;13.54;100.00;97136.03;4969552;28;20566;-67
2022/10/13 07:54:45;;;;;;;37.80;19.48;;;;;;;13.45;100.00;97125.34;4983911;28;20129;-67
2022/10/13 07:57:11;;;;;;;32.45;16.60;;;;;;;13.52;100.00;97130.94;4976167;28;20106;-67
2022/10/13 07:59:36;;;;;;;36.08;18.63;;;;;;;13.53;100.00;97124.25;4983197;28;20069;-66
2022/10/13 08:02:02;;;;;;;52.35;22.38;;;;;;;13.50;100.00;97124.22;4979336;28;20050;-67
2022/10/13 08:04:33;;;;;;;33.38;19.17;;;;;;;13.67;100.00;97126.38;4981976;28;20073;-67
2022/10/13 08:06:58;;;;;;;30.52;17.90;;;;;;;13.77;100.00;97119.38;4990122;28;20109;-67
2022/10/13 08:09:25;;;;;;;30.70;18.27;;;;;;;13.72;100.00;97115.03;4968658;28;20197;-67
2022/10/13 08:11:51;;;;;;;33.85;18.67;;;;;;;13.88;100.00;97122.25;4983795;28;20432;-66
2022/10/13 08:14:16;;;;;;;31.45;18.15;;;;;;;14.01;100.00;97128.28;4977855;28;20104;-67
2022/10/13 08:16:44;;;;;;;30.60;17.75;;;;;;;14.04;100.00;97122.81;4982403;28;20395;-67
2022/10/13 08:19:14;;;;;;;33.42;18.17;;;;;;;14.03;100.00;97125.97;4976726;28;20050;-67
2022/10/13 08:21:40;;;;;;;28.48;16.45;;;;;;;14.01;100.00;97125.53;4981709;28;20035;-66
2022/10/13 08:24:08;;;;;;;30.92;17.38;;;;;;;14.07;100.00;97124.03;4969314;28;20051;-66
2022/10/13 08:26:33;;;;;;;39.88;19.15;;;;;;;14.29;100.00;97130.50;4979297;28;20034;-66
2022/10/13 08:28:59;;;;;;;35.97;18.85;;;;;;;14.28;100.00;97120.69;4981789;28;20046;-66
2022/10/13 08:31:24;;;;;;;37.53;19.20;;;;;;;14.18;100.00;97126.88;4977413;28;20042;-66
2022/10/13 08:33:51;;;;;;;34.83;19.58;;;;;;;14.18;100.00;97124.91;4981917;28;20047;-68
2022/10/13 08:36:17;;;;;;;32.83;17.55;;;;;;;14.10;100.00;97115.00;4976262;28;20057;-66
2022/10/13 08:38:43;;;;;;;34.03;17.60;;;;;;;14.18;100.00;97113.88;4980813;28;20038;-66
2022/10/13 08:41:16;;;;;;;32.75;17.17;;;;;;;14.67;100.00;97107.19;4976292;28;20133;-66
2022/10/13 08:43:48;;;;;;;29.77;17.10;;;;;;;15.28;100.00;97110.28;4979859;28;20422;-67
2022/10/13 08:46:23;;;;;;;26.92;17.08;;;;;;;15.82;100.00;97110.50;4980287;28;20053;-67
2022/10/13 08:48:49;;;;;;;29.70;16.00;;;;;;;16.62;100.00;97114.91;4987447;28;20098;-66
2022/10/13 08:51:15;;;;;;;27.40;15.45;;;;;;;17.10;100.00;97119.19;4980985;28;20563;-66
2022/10/13 08:53:43;;;;;;;29.63;16.55;;;;;;;17.25;100.00;97113.59;4983624;28;20149;-66
2022/10/13 08:56:13;;;;;;;33.13;15.95;;;;;;;15.74;100.00;97100.63;4980060;28;20092;-66
2022/10/13 08:58:40;;;;;;;;;;;;;;;16.42;100.00;97110.97;4985422;28;20545;-66
2022/10/13 09:01:24;;;;;;;30.00;14.75;;;;;;;16.93;100.00;97111.75;4976623;28;20017;-67
2022/10/13 09:03:50;;;;;;;29.85;14.98;;;;;;;16.96;100.00;97117.25;4974653;28;20062;-66
2022/10/13 09:06:20;;;;;;;34.78;14.98;;;;;;;17.31;100.00;97115.56;4978156;28;20582;-67
2022/10/13 09:09:07;;;;;;;29.52;13.45;;;;;;;17.56;100.00;97115.47;4966558;28;20349;-66
2022/10/13 09:11:42;;;;;;;26.67;13.05;;;;;;;17.50;100.00;97119.88;4968585;28;20368;-67
2022/10/13 09:14:10;;;;;;;29.45;13.15;;;;;;;16.95;100.00;97118.44;4980570;28;20112;-69
2022/10/13 09:16:42;;;;;;;25.85;13.13;;;;;;;16.56;100.00;97116.47;4985504;28;20046;-67
2022/10/13 09:19:21;;;;;;;20.92;11.93;;;;;;;16.77;100.00;97114.91;4980072;28;20487;-67
2022/10/13 09:21:52;;;;;;;24.58;13.88;;;;;;;16.79;100.00;97118.81;4983963;28;20038;-68
2022/10/13 09:24:20;;;;;;;21.17;12.90;;;;;;;16.50;100.00;97106.22;4979900;28;20081;-67
2022/10/13 09:26:48;;;;;;;23.75;13.90;;;;;;;16.49;100.00;97110.16;4980016;28;20046;-67
2022/10/13 09:29:25;;;;;;;25.83;13.65;;;;;;;16.45;100.00;97107.41;4979830;28;20419;-67
2022/10/13 09:32:05;;;;;;;33.28;14.57;;;;;;;16.40;100.00;97099.50;4986385;28;20046;-67
2022/10/13 09:34:31;;;;;;;25.02;13.52;;;;;;;17.17;100.00;97105.31;4981754;28;20088;-68
2022/10/13 09:37:02;;;;;;;30.00;13.73;;;;;;;17.86;100.00;97105.84;4997934;28;20058;-67
2022/10/13 09:39:29;;;;;;;23.40;13.27;;;;;;;18.24;100.00;97107.97;4982755;28;20057;-67
2022/10/13 09:42:18;;;;;;;29.02;13.38;;;;;;;18.44;100.00;97108.19;4985042;28;20045;-67
2022/10/13 09:44:45;;;;;;;28.60;14.23;;;;;;;18.79;96.37;97103.53;4984688;28;20089;-67
2022/10/13 09:47:19;;;;;;;29.75;14.30;;;;;;;19.21;92.27;97107.09;4980059;28;20046;-67
2022/10/13 09:49:45;;;;;;;23.27;13.10;;;;;;;19.47;91.88;97109.16;4982466;28;20080;-66
2022/10/13 09:52:10;;;;;;;24.73;13.32;;;;;;;19.34;89.87;97094.25;4979148;28;20133;-67
2022/10/13 09:54:40;;;;;;;21.75;12.57;;;;;;;19.98;89.90;97097.41;4984053;28;20050;-66
2022/10/13 09:57:24;;;;;;;30.52;14.43;;;;;;;19.35;90.25;97104.16;4979836;28;20415;-70
2022/10/13 10:00:03;;;;;;;29.17;14.52;;;;;;;19.16;93.38;97105.56;4984508;28;20041;-66
2022/10/13 10:02:42;;;;;;;28.70;13.50;;;;;;;18.94;90.57;97107.75;4982459;28;20046;-67
2022/10/13 10:05:21;;;;;;;;;;;;;;;19.15;90.16;97103.97;4992313;28;20132;-66
2022/10/13 10:07:46;;;;;;;25.33;14.52;;;;;;;18.42;92.41;97094.75;4980510;28;19968;-67
2022/10/13 10:10:27;;;;;;;30.67;14.50;;;;;;;18.38;95.14;97101.53;4981300;28;20073;-66
2022/10/13 10:12:53;;;;;;;29.48;15.98;;;;;;;18.33;96.78;97098.00;4983679;28;20052;-67
2022/10/13 10:15:24;;;;;;;25.55;13.45;;;;;;;18.33;96.82;97100.78;4979538;28;20046;-67
2022/10/13 10:18:00;;;;;;;32.72;14.30;;;;;;;18.15;98.68;97103.69;4984559;28;20042;-67
2022/10/13 10:20:40;;;;;;;29.05;14.32;;;;;;;17.58;100.00;97104.78;4969147;28;20321;-68
2022/10/13 10:23:35;;;;;;;25.27;13.40;;;;;;;17.12;100.00;97102.97;4978175;28;20053;-68
2022/10/13 10:26:07;;;;;;;25.10;13.80;;;;;;;17.27;100.00;97105.69;4982895;28;20042;-67
2022/10/13 10:28:57;;;;;;;25.38;14.55;;;;;;;17.12;100.00;97110.50;4983707;28;20050;-67
2022/10/13 10:31:26;;;;;;;27.58;14.70;;;;;;;17.13;100.00;97106.53;4980126;28;20053;-68
2022/10/13 10:34:09;;;;;;;34.03;17.52;;;;;;;16.87;100.00;97105.00;4982390;28;20045;-67
2022/10/13 10:36:43;;;;;;;30.83;18.75;;;;;;;16.61;100.00;97105.03;4983561;28;20050;-67
2022/10/13 10:39:23;;;;;;;28.00;14.75;;;;;;;16.61;100.00;97104.25;4981103;28;20398;-67
2022/10/13 10:42:02;;;;;;;31.58;15.25;;;;;;;16.56;100.00;97099.09;4978229;28;20051;-67
2022/10/13 10:44:39;;;;;;;33.30;16.92;;;;;;;16.69;100.00;97093.94;4977240;28;20492;-66
2022/10/13 10:47:14;;;;;;;30.00;14.45;;;;;;;16.59;100.00;97090.81;4978463;28;20185;-68
2022/10/13 10:49:41;;;;;;;26.20;13.80;;;;;;;16.57;100.00;97093.19;4983775;28;20491;-67
2022/10/13 10:52:22;;;;;;;25.42;16.00;;;;;;;16.65;100.00;97082.13;4977766;28;20123;-68
2022/10/13 10:54:58;;;;;;;27.48;14.52;;;;;;;16.53;100.00;97084.13;4982152;28;20042;-68
2022/10/13 10:57:47;;;;;;;27.23;14.85;;;;;;;16.59;100.00;97076.19;4975354;28;20085;-67
2022/10/13 11:00:18;;;;;;;33.28;15.43;;;;;;;17.00;100.00;97079.31;4973162;28;20462;-67
2022/10/13 11:02:51;;;;;;;24.98;14.73;;;;;;;16.84;100.00;97070.66;4976419;28;20054;-67
2022/10/13 11:05:17;;;;;;;34.78;15.05;;;;;;;17.18;100.00;97059.88;4978229;28;20042;-67
2022/10/13 11:07:42;;;;;;;25.73;13.80;;;;;;;17.63;100.00;97067.56;4980642;28;20364;-68
2022/10/13 11:10:16;;;;;;;27.90;15.45;;;;;;;17.93;100.00;97053.16;4976717;28;20046;-67
2022/10/13 11:13:05;;;;;;;31.13;16.05;;;;;;;18.20;100.00;97049.75;4982076;28;20499;-67
2022/10/13 11:15:42;;;;;;;29.50;15.98;;;;;;;18.42;100.00;97055.94;4982586;28;20057;-67
2022/10/13 11:18:44;;;;;;;29.60;16.85;;;;;;;18.11;100.00;97055.81;4978579;28;20046;-67
2022/10/13 11:21:09;;;;;;;28.13;14.55;;;;;;;18.02;100.00;97054.66;4977983;28;20034;-66